createdAt,value
2023-10-06T00:00:49.428Z,13.17
2023-10-06T00:03:17.515Z,13.17
2023-10-06T00:05:45.646Z,13.17
2023-10-06T00:08:16.647Z,13.16
2023-10-06T00:10:55.618Z,13.16
2023-10-06T00:13:45.880Z,13.14
2023-10-06T00:16:14.179Z,13.13
2023-10-06T00:18:41.615Z,13.11
2023-10-06T00:21:16.566Z,13.10
2023-10-06T00:24:38.557Z,13.11
2023-10-06T00:27:11.986Z,13.09
2023-10-06T00:29:40.421Z,13.09
2023-10-06T00:32:25.893Z,13.08
2023-10-06T00:35:13.161Z,13.09
2023-10-06T00:37:41.065Z,13.09
2023-10-06T00:40:21.996Z,13.09
2023-10-06T00:42:52.931Z,13.09
2023-10-06T00:45:20.343Z,13.10
2023-10-06T00:47:47.703Z,13.10
2023-10-06T00:50:16.784Z,13.12
2023-10-06T00:52:44.829Z,13.13
2023-10-06T00:55:13.536Z,13.16
2023-10-06T00:57:41.868Z,13.18
2023-10-06T01:00:18.039Z,13.20
2023-10-06T01:02:45.988Z,13.21
2023-10-06T01:05:16.584Z,13.21
2023-10-06T01:07:47.298Z,13.20
2023-10-06T01:10:29.561Z,13.18
2023-10-06T01:12:58.325Z,13.16
2023-10-06T01:15:30.605Z,13.14
2023-10-06T01:18:00.077Z,13.11
2023-10-06T01:20:42.059Z,13.08
2023-10-06T01:23:17.194Z,13.05
2023-10-06T01:25:47.808Z,13.03
2023-10-06T01:28:15.156Z,13.00
2023-10-06T01:30:42.603Z,12.98
2023-10-06T01:33:10.856Z,12.97
2023-10-06T01:35:43.814Z,12.96
2023-10-06T01:38:24.024Z,12.95
2023-10-06T01:40:55.393Z,12.95
2023-10-06T01:43:31.155Z,12.94
2023-10-06T01:46:00.816Z,12.95
2023-10-06T01:48:32.254Z,12.93
2023-10-06T01:50:59.983Z,12.92
2023-10-06T01:53:34.049Z,12.92
2023-10-06T01:56:08.200Z,12.89
2023-10-06T01:58:36.979Z,12.86
2023-10-06T02:01:07.444Z,12.82
2023-10-06T02:03:39.881Z,12.78
2023-10-06T02:06:14.112Z,12.74
2023-10-06T02:08:43.774Z,12.70
2023-10-06T02:11:13.700Z,12.67
2023-10-06T02:13:41.123Z,12.65
2023-10-06T02:16:10.079Z,12.62
2023-10-06T02:18:37.890Z,12.61
2023-10-06T02:21:13.235Z,12.61
2023-10-06T02:23:42.628Z,12.60
2023-10-06T02:26:13.692Z,12.60
2023-10-06T02:28:45.672Z,12.60
2023-10-06T02:31:13.587Z,12.60
2023-10-06T02:33:41.688Z,12.60
2023-10-06T02:36:35.413Z,12.60
2023-10-06T02:39:07.426Z,12.59
2023-10-06T02:41:35.334Z,12.57
2023-10-06T02:44:15.555Z,12.55
2023-10-06T02:46:46.062Z,12.53
2023-10-06T02:49:13.500Z,12.49
2023-10-06T02:51:49.839Z,12.47
2023-10-06T02:54:17.196Z,12.44
2023-10-06T02:56:47.604Z,12.42
2023-10-06T02:59:27.330Z,12.40
2023-10-06T03:01:59.296Z,12.36
2023-10-06T03:04:27.860Z,12.32
2023-10-06T03:06:59.150Z,12.30
2023-10-06T03:09:30.608Z,12.27
2023-10-06T03:12:01.318Z,12.23
2023-10-06T03:14:39.098Z,12.20
2023-10-06T03:17:09.766Z,12.16
2023-10-06T03:19:41.810Z,12.13
2023-10-06T03:22:14.284Z,12.10
2023-10-06T03:25:01.651Z,12.06
2023-10-06T03:27:30.315Z,12.04
2023-10-06T03:30:08.940Z,12.00
2023-10-06T03:32:40.809Z,11.96
2023-10-06T03:35:25.348Z,11.93
2023-10-06T03:37:55.267Z,11.90
2023-10-06T03:40:31.930Z,11.85
2023-10-06T03:43:06.207Z,11.80
2023-10-06T03:45:35.329Z,11.76
2023-10-06T03:48:15.017Z,11.73
2023-10-06T03:50:45.166Z,11.70
2023-10-06T03:53:14.012Z,11.67
2023-10-06T03:55:42.518Z,11.65
2023-10-06T03:58:11.419Z,11.64
2023-10-06T04:00:48.779Z,11.63
2023-10-06T04:03:18.552Z,11.62
2023-10-06T04:05:50.159Z,11.61
2023-10-06T04:08:20.317Z,11.61
2023-10-06T04:10:54.616Z,11.61
2023-10-06T04:13:22.065Z,11.61
2023-10-06T04:15:53.945Z,11.61
2023-10-06T04:18:24.392Z,11.60
2023-10-06T04:20:53.080Z,11.58
2023-10-06T04:23:24.274Z,11.56
2023-10-06T04:25:56.435Z,11.53
2023-10-06T04:28:26.623Z,11.53
2023-10-06T04:30:55.673Z,11.52
2023-10-06T04:33:26.782Z,11.53
2023-10-06T04:35:57.580Z,11.54
2023-10-06T04:38:25.120Z,11.54
2023-10-06T04:40:57.861Z,11.54
2023-10-06T04:43:25.468Z,11.55
2023-10-06T04:45:52.810Z,11.57
2023-10-06T04:48:20.150Z,11.57
2023-10-06T04:50:47.744Z,11.57
2023-10-06T04:53:18.096Z,11.55
2023-10-06T04:55:45.440Z,11.52
2023-10-06T04:58:16.087Z,11.49
2023-10-06T05:00:43.425Z,11.46
2023-10-06T05:03:12.670Z,11.44
2023-10-06T05:05:41.504Z,11.43
2023-10-06T05:08:15.881Z,11.42
2023-10-06T05:10:43.508Z,11.43
2023-10-06T05:13:11.864Z,11.49
2023-10-06T05:15:42.422Z,11.57
2023-10-06T05:18:17.087Z,11.67
2023-10-06T05:20:44.856Z,11.79
2023-10-06T05:23:15.791Z,11.90
2023-10-06T05:25:46.110Z,11.99
2023-10-06T05:28:17.929Z,12.09
2023-10-06T05:30:45.743Z,12.19
2023-10-06T05:33:15.687Z,12.28
2023-10-06T05:35:45.097Z,12.36
2023-10-06T05:38:15.693Z,12.44
2023-10-06T05:40:47.698Z,12.50
2023-10-06T05:43:17.452Z,12.55
2023-10-06T05:45:46.437Z,12.58
2023-10-06T05:48:14.114Z,12.59
2023-10-06T05:50:45.264Z,12.58
2023-10-06T05:53:21.229Z,12.56
2023-10-06T05:55:51.049Z,12.54
2023-10-06T05:58:24.730Z,12.50
2023-10-06T06:00:52.630Z,12.52
2023-10-06T06:03:22.053Z,12.51
2023-10-06T06:05:58.832Z,12.50
2023-10-06T06:08:26.203Z,12.53
2023-10-06T06:10:53.563Z,12.55
2023-10-06T06:13:22.991Z,12.59
2023-10-06T06:15:50.753Z,12.63
2023-10-06T06:18:18.210Z,12.66
2023-10-06T06:20:47.108Z,12.67
2023-10-06T06:23:16.402Z,12.67
2023-10-06T06:25:45.781Z,12.67
2023-10-06T06:28:13.603Z,12.64
2023-10-06T06:30:41.129Z,12.59
2023-10-06T06:33:23.706Z,12.56
2023-10-06T06:35:51.257Z,12.53
2023-10-06T06:38:20.130Z,12.51
2023-10-06T06:40:47.667Z,12.51
2023-10-06T06:43:15.133Z,12.51
2023-10-06T06:45:42.549Z,12.52
2023-10-06T06:48:14.578Z,12.53
2023-10-06T06:50:45.951Z,12.53
2023-10-06T06:53:13.760Z,12.53
2023-10-06T06:55:43.677Z,12.54
2023-10-06T06:58:13.086Z,12.56
2023-10-06T07:00:43.430Z,12.60
2023-10-06T07:03:12.673Z,12.64
2023-10-06T07:05:40.874Z,12.70
2023-10-06T07:08:08.603Z,12.74
2023-10-06T07:10:40.351Z,12.80
2023-10-06T07:13:08.103Z,12.88
2023-10-06T07:15:35.438Z,12.94
2023-10-06T07:18:03.161Z,12.99
2023-10-06T07:20:31.613Z,13.04
2023-10-06T07:23:01.962Z,13.08
2023-10-06T07:25:29.887Z,13.12
2023-10-06T07:27:59.006Z,13.14
2023-10-06T07:30:30.339Z,13.14
2023-10-06T07:32:57.789Z,13.15
2023-10-06T07:35:48.898Z,13.16
2023-10-06T07:38:16.372Z,13.09
2023-10-06T07:40:43.934Z,13.01
2023-10-06T07:43:11.953Z,12.95
2023-10-06T07:45:39.766Z,12.94
2023-10-06T07:48:07.361Z,12.98
2023-10-06T07:50:36.040Z,13.03
2023-10-06T07:53:03.908Z,13.09
2023-10-06T07:55:33.448Z,13.15
2023-10-06T07:58:01.874Z,13.21
2023-10-06T08:00:30.868Z,13.28
2023-10-06T08:02:59.251Z,13.33
2023-10-06T08:05:29.589Z,13.34
2023-10-06T08:07:59.814Z,13.35
2023-10-06T08:10:31.361Z,13.35
2023-10-06T08:13:02.961Z,13.37
2023-10-06T08:15:33.640Z,13.41
2023-10-06T08:18:01.841Z,13.46
2023-10-06T08:20:31.397Z,13.53
2023-10-06T08:22:59.314Z,13.57
2023-10-06T08:25:27.450Z,13.56
2023-10-06T08:27:56.070Z,13.57
2023-10-06T08:30:23.472Z,13.62
2023-10-06T08:32:53.405Z,13.69
2023-10-06T08:35:21.689Z,13.77
2023-10-06T08:37:51.128Z,13.82
2023-10-06T08:40:20.941Z,13.84
2023-10-06T08:42:55.090Z,13.88
2023-10-06T08:45:25.975Z,13.91
2023-10-06T08:48:02.490Z,13.94
2023-10-06T08:50:32.941Z,13.96
2023-10-06T08:53:02.705Z,13.96
2023-10-06T08:55:30.652Z,13.92
2023-10-06T08:58:03.934Z,13.91
2023-10-06T09:00:35.624Z,13.96
2023-10-06T09:03:10.968Z,14.03
2023-10-06T09:05:42.539Z,14.08
2023-10-06T09:08:11.262Z,14.12
2023-10-06T09:10:52.480Z,14.16
2023-10-06T09:13:20.572Z,14.21
2023-10-06T09:16:04.313Z,14.27
2023-10-06T09:18:35.959Z,14.33
2023-10-06T09:21:22.639Z,14.32
2023-10-06T09:23:50.704Z,14.31
2023-10-06T09:26:30.748Z,14.31
2023-10-06T09:29:02.982Z,14.33
2023-10-06T09:31:46.142Z,14.37
2023-10-06T09:34:24.602Z,14.38
2023-10-06T09:36:52.472Z,14.35
2023-10-06T09:39:34.465Z,14.34
2023-10-06T09:42:02.118Z,14.37
2023-10-06T09:44:29.436Z,14.41
2023-10-06T09:46:58.479Z,14.45
2023-10-06T09:49:26.970Z,14.49
2023-10-06T09:51:54.420Z,14.50
2023-10-06T09:54:21.886Z,14.53
2023-10-06T09:56:49.279Z,14.58
2023-10-06T09:59:17.339Z,14.57
2023-10-06T10:01:47.183Z,14.52
2023-10-06T10:04:15.611Z,14.52
2023-10-06T10:06:46.269Z,14.56
2023-10-06T10:09:18.334Z,14.62
2023-10-06T10:12:32.621Z,14.69
2023-10-06T10:15:17.346Z,14.71
2023-10-06T10:17:48.166Z,14.66
2023-10-06T10:20:16.412Z,14.64
2023-10-06T10:22:44.193Z,14.66
2023-10-06T10:27:45.051Z,14.67
2023-10-06T10:30:14.068Z,14.66
2023-10-06T10:32:43.178Z,14.64
2023-10-06T10:35:19.903Z,14.64
2023-10-06T10:38:08.015Z,14.63
2023-10-06T10:40:48.782Z,14.63
2023-10-06T10:43:17.167Z,14.60
2023-10-06T10:45:45.486Z,14.55
2023-10-06T10:48:16.716Z,14.51
2023-10-06T10:51:01.204Z,14.49
2023-10-06T10:53:32.645Z,14.50
2023-10-06T10:56:01.604Z,14.54
2023-10-06T10:58:46.119Z,14.56
2023-10-06T11:01:37.625Z,14.55
2023-10-06T11:04:30.576Z,14.55
2023-10-06T11:07:02.698Z,14.58
2023-10-06T11:09:30.681Z,14.61
2023-10-06T11:12:20.217Z,14.64
2023-10-06T11:14:47.566Z,14.66
2023-10-06T11:17:15.400Z,14.69
2023-10-06T11:19:42.814Z,14.75
2023-10-06T11:22:10.912Z,14.82
2023-10-06T11:24:38.714Z,14.87
2023-10-06T11:27:24.169Z,14.90
2023-10-06T11:29:56.232Z,14.91
2023-10-06T11:32:23.704Z,14.89
2023-10-06T11:34:51.940Z,14.89
2023-10-06T11:37:26.465Z,14.90
2023-10-06T11:39:54.678Z,14.91
2023-10-06T11:42:28.866Z,14.92
2023-10-06T11:44:57.818Z,14.91
2023-10-06T11:47:28.389Z,14.91
2023-10-06T11:49:56.464Z,14.93
2023-10-06T11:52:23.845Z,14.93
2023-10-06T11:54:52.864Z,14.94
2023-10-06T11:57:23.056Z,14.94
2023-10-06T11:59:51.157Z,14.94
2023-10-06T12:02:18.841Z,14.95
2023-10-06T12:04:46.362Z,14.96
2023-10-06T12:07:23.288Z,14.97
2023-10-06T12:09:51.129Z,15.00
2023-10-06T12:12:18.852Z,15.02
2023-10-06T12:14:46.400Z,15.06
2023-10-06T12:17:16.233Z,15.05
2023-10-06T12:19:43.670Z,15.04
2023-10-06T12:22:14.328Z,15.02
2023-10-06T12:24:41.986Z,15.04
2023-10-06T12:27:10.732Z,15.04
2023-10-06T12:29:40.173Z,15.05
2023-10-06T12:32:07.507Z,15.05
2023-10-06T12:34:34.959Z,15.06
2023-10-06T12:37:05.314Z,15.03
2023-10-06T12:41:29.660Z,15.05
2023-10-06T12:44:04.363Z,15.03
2023-10-06T12:46:34.528Z,15.02
2023-10-06T12:49:08.217Z,15.01
2023-10-06T12:51:37.030Z,14.98
2023-10-06T12:54:05.175Z,14.97
2023-10-06T12:56:33.080Z,14.99
2023-10-06T12:59:00.617Z,14.99
2023-10-06T13:01:32.083Z,15.00
2023-10-06T13:03:59.666Z,15.01
2023-10-06T13:06:27.307Z,15.01
2023-10-06T13:08:54.690Z,15.00
2023-10-06T13:11:23.374Z,14.99
2023-10-06T13:13:50.940Z,15.00
2023-10-06T13:18:35.106Z,15.02
2023-10-06T13:21:02.411Z,15.00
2023-10-06T13:23:30.864Z,14.99
2023-10-06T13:25:59.538Z,14.97
2023-10-06T13:28:27.388Z,14.95
2023-10-06T13:30:55.318Z,14.93
2023-10-06T13:33:22.980Z,14.93
2023-10-06T13:35:50.516Z,14.94
2023-10-06T13:38:17.855Z,14.94
2023-10-06T13:40:46.411Z,14.93
2023-10-06T13:43:14.565Z,14.93
2023-10-06T13:45:46.588Z,14.92
2023-10-06T13:48:16.948Z,14.90
2023-10-06T13:50:44.666Z,14.89
2023-10-06T13:53:11.974Z,14.89
2023-10-06T13:55:39.622Z,14.88
2023-10-06T13:58:06.990Z,14.86
2023-10-06T14:00:36.718Z,14.83
2023-10-06T14:03:05.657Z,14.82
2023-10-06T14:05:34.271Z,14.78
2023-10-06T14:08:03.255Z,14.73
2023-10-06T14:10:32.616Z,14.69
2023-10-06T14:13:32.419Z,14.65
2023-10-06T14:16:02.741Z,14.61
2023-10-06T14:18:33.970Z,14.58
2023-10-06T14:21:07.486Z,14.55
2023-10-06T14:23:44.978Z,14.52
2023-10-06T14:26:12.877Z,14.49
2023-10-06T14:28:41.204Z,14.47
2023-10-06T14:31:17.814Z,14.44
2023-10-06T14:34:11.406Z,14.41
2023-10-06T14:36:39.454Z,14.37
2023-10-06T14:39:25.394Z,14.34
2023-10-06T14:42:01.692Z,14.31
2023-10-06T14:44:47.913Z,14.27
2023-10-06T14:47:15.303Z,14.23
2023-10-06T14:49:45.410Z,14.19
2023-10-06T14:52:14.472Z,14.15
2023-10-06T14:54:41.937Z,14.10
2023-10-06T14:57:09.436Z,14.05
2023-10-06T14:59:36.794Z,13.99
2023-10-06T15:02:08.236Z,13.94
2023-10-06T15:04:36.988Z,13.90
2023-10-06T15:07:04.408Z,13.84
2023-10-06T15:09:32.488Z,13.79
2023-10-06T15:12:00.896Z,13.74
2023-10-06T15:14:29.576Z,13.67
2023-10-06T15:17:01.102Z,13.60
2023-10-06T15:19:28.796Z,13.54
2023-10-06T15:21:56.669Z,13.48
2023-10-06T15:24:24.224Z,13.42
2023-10-06T15:26:51.966Z,13.37
2023-10-06T15:29:22.520Z,13.31
2023-10-06T15:31:50.770Z,13.25
2023-10-06T15:34:18.766Z,13.21
2023-10-06T15:36:46.378Z,13.17
2023-10-06T15:39:20.124Z,13.13
2023-10-06T15:41:49.989Z,13.07
2023-10-06T15:44:18.180Z,13.03
2023-10-06T15:46:46.390Z,12.98
2023-10-06T15:49:17.424Z,12.93
2023-10-06T15:51:48.578Z,12.87
2023-10-06T15:54:17.120Z,12.83
2023-10-06T15:56:45.469Z,12.77
2023-10-06T15:59:17.542Z,12.72
2023-10-06T16:01:46.489Z,12.67
2023-10-06T16:04:15.601Z,12.64
2023-10-06T16:06:44.759Z,12.58
2023-10-06T16:09:17.824Z,12.54
2023-10-06T16:11:46.197Z,12.49
2023-10-06T16:14:17.369Z,12.44
2023-10-06T16:16:47.444Z,12.38
2023-10-06T16:19:15.536Z,12.32
2023-10-06T16:21:43.322Z,12.28
2023-10-06T16:24:13.435Z,12.24
2023-10-06T16:26:42.168Z,12.20
2023-10-06T16:29:11.168Z,12.16
2023-10-06T16:31:39.316Z,12.09
2023-10-06T16:34:06.783Z,12.05
2023-10-06T16:36:34.152Z,12.00
2023-10-06T16:39:01.624Z,11.95
2023-10-06T16:41:28.991Z,11.91
2023-10-06T16:43:59.624Z,11.86
2023-10-06T16:46:27.104Z,11.81
2023-10-06T16:48:54.597Z,11.75
2023-10-06T16:51:22.121Z,11.71
2023-10-06T16:53:50.101Z,11.67
2023-10-06T16:56:19.962Z,11.63
2023-10-06T16:58:47.779Z,11.60
2023-10-06T17:01:15.534Z,11.56
2023-10-06T17:03:43.188Z,11.50
2023-10-06T17:06:12.598Z,11.44
2023-10-06T17:08:41.521Z,11.36
2023-10-06T17:11:15.742Z,11.28
2023-10-06T17:13:43.523Z,11.22
2023-10-06T17:16:14.640Z,11.15
2023-10-06T17:18:43.148Z,11.08
2023-10-06T17:21:14.210Z,11.03
2023-10-06T17:23:43.796Z,10.98
2023-10-06T17:26:13.842Z,10.93
2023-10-06T17:28:41.580Z,10.89
2023-10-06T17:31:19.712Z,10.87
2023-10-06T17:33:48.642Z,10.86
2023-10-06T17:36:16.236Z,10.85
2023-10-06T17:38:43.832Z,10.85
2023-10-06T17:41:16.688Z,10.83
2023-10-06T17:43:46.132Z,10.80
2023-10-06T17:46:17.249Z,10.77
2023-10-06T17:48:48.458Z,10.72
2023-10-06T17:51:17.103Z,10.68
2023-10-06T17:53:44.708Z,10.63
2023-10-06T17:56:12.608Z,10.57
2023-10-06T17:58:40.883Z,10.50
2023-10-06T18:01:08.865Z,10.41
2023-10-06T18:03:36.438Z,10.31
2023-10-06T18:06:04.593Z,10.21
2023-10-06T18:08:33.145Z,10.12
2023-10-06T18:11:00.540Z,10.06
2023-10-06T18:13:28.189Z,10.01
2023-10-06T18:15:55.625Z,9.97
2023-10-06T18:18:23.149Z,9.94
2023-10-06T18:20:50.977Z,9.91
2023-10-06T18:23:18.313Z,9.87
2023-10-06T18:25:45.626Z,9.85
2023-10-06T18:28:13.181Z,9.84
2023-10-06T18:30:47.318Z,9.81
2023-10-06T18:33:14.710Z,9.79
2023-10-06T18:35:42.139Z,9.77
2023-10-06T18:38:09.440Z,9.73
2023-10-06T18:40:37.454Z,9.69
2023-10-06T18:43:05.553Z,9.66
2023-10-06T18:45:34.194Z,9.62
2023-10-06T18:48:02.374Z,9.60
2023-10-06T18:50:31.676Z,9.56
2023-10-06T18:52:59.029Z,9.50
2023-10-06T18:55:26.590Z,9.46
2023-10-06T18:57:54.898Z,9.42
2023-10-06T19:00:24.314Z,9.38
2023-10-06T19:02:52.924Z,9.34
2023-10-06T19:05:20.317Z,9.31
2023-10-06T19:07:48.525Z,9.28
2023-10-06T19:10:16.379Z,9.25
2023-10-06T19:12:46.767Z,9.21
2023-10-06T19:15:14.423Z,9.17
2023-10-06T19:17:42.550Z,9.12
2023-10-06T19:20:10.767Z,9.08
2023-10-06T19:22:39.479Z,9.06
2023-10-06T19:25:10.991Z,9.06
2023-10-06T19:27:39.645Z,9.05
2023-10-06T19:30:11.238Z,9.03
2023-10-06T19:32:38.965Z,8.98
2023-10-06T19:35:09.996Z,8.94
2023-10-06T19:37:38.936Z,8.90
2023-10-06T19:40:10.758Z,8.87
2023-10-06T19:42:41.062Z,8.84
2023-10-06T19:45:09.162Z,8.81
2023-10-06T19:47:36.848Z,8.79
2023-10-06T19:50:12.845Z,8.76
2023-10-06T19:52:41.218Z,8.73
2023-10-06T19:55:09.248Z,8.68
2023-10-06T19:57:37.878Z,8.63
2023-10-06T20:00:12.435Z,8.57
2023-10-06T20:02:41.719Z,8.53
2023-10-06T20:05:11.303Z,8.50
2023-10-06T20:07:38.721Z,8.48
2023-10-06T20:10:06.903Z,8.48
2023-10-06T20:12:34.224Z,8.46
2023-10-06T20:15:04.908Z,8.45
2023-10-06T20:17:32.467Z,8.44
2023-10-06T20:19:59.934Z,8.43
2023-10-06T20:22:27.533Z,8.41
2023-10-06T20:24:54.879Z,8.39
2023-10-06T20:27:22.717Z,8.37
2023-10-06T20:29:50.197Z,8.34
2023-10-06T20:32:17.726Z,8.31
2023-10-06T20:34:45.272Z,8.29
2023-10-06T20:37:12.708Z,8.26
2023-10-06T20:39:40.036Z,8.22
2023-10-06T20:42:07.377Z,8.18
2023-10-06T20:44:34.692Z,8.12
2023-10-06T20:47:03.668Z,8.00
2023-10-06T20:49:31.516Z,7.90
2023-10-06T20:51:58.981Z,7.85
2023-10-06T20:54:26.297Z,7.81
2023-10-06T20:56:53.586Z,7.76
2023-10-06T20:59:20.867Z,7.73
2023-10-06T21:01:50.234Z,7.71
2023-10-06T21:04:17.836Z,7.70
2023-10-06T21:06:45.315Z,7.71
2023-10-06T21:09:16.644Z,7.72
2023-10-06T21:11:44.523Z,7.74
2023-10-06T21:14:13.715Z,7.75
2023-10-06T21:16:42.687Z,7.76
2023-10-06T21:19:10.140Z,7.77
2023-10-06T21:21:37.482Z,7.77
2023-10-06T21:24:06.828Z,7.75
2023-10-06T21:26:37.302Z,7.72
2023-10-06T21:29:07.677Z,7.69
2023-10-06T21:31:37.195Z,7.64
2023-10-06T21:34:04.846Z,7.56
2023-10-06T21:36:32.157Z,7.50
2023-10-06T21:38:59.448Z,7.46
2023-10-06T21:41:26.774Z,7.41
2023-10-06T21:43:54.778Z,7.37
2023-10-06T21:46:22.975Z,7.35
2023-10-06T21:48:50.914Z,7.34
2023-10-06T21:51:18.450Z,7.31
2023-10-06T21:53:46.521Z,7.29
2023-10-06T21:56:13.896Z,7.28
2023-10-06T21:58:41.505Z,7.25
2023-10-06T22:01:14.862Z,7.21
2023-10-06T22:03:42.795Z,7.15
2023-10-06T22:06:11.184Z,7.09
2023-10-06T22:08:38.569Z,7.05
2023-10-06T22:11:05.981Z,7.01
2023-10-06T22:13:33.412Z,7.00
2023-10-06T22:16:00.878Z,7.01
2023-10-06T22:18:28.438Z,7.00
2023-10-06T22:20:55.952Z,7.01
2023-10-06T22:23:23.660Z,7.01
2023-10-06T22:25:52.494Z,7.01
2023-10-06T22:28:21.135Z,7.02
2023-10-06T22:30:50.167Z,7.03
2023-10-06T22:33:17.829Z,7.04
2023-10-06T22:35:45.322Z,7.06
2023-10-06T22:38:13.118Z,7.09
2023-10-06T22:40:40.892Z,7.12
2023-10-06T22:43:08.763Z,7.16
2023-10-06T22:45:39.025Z,7.19
2023-10-06T22:50:37.688Z,7.28
2023-10-06T22:53:05.117Z,7.33
2023-10-06T22:55:32.662Z,7.36
2023-10-06T22:58:00.098Z,7.38
2023-10-06T23:00:30.046Z,7.39
2023-10-06T23:02:57.983Z,7.38
2023-10-06T23:05:25.972Z,7.37
2023-10-06T23:07:53.859Z,7.36
2023-10-06T23:10:23.876Z,7.34
2023-10-06T23:12:51.945Z,7.34
2023-10-06T23:15:20.974Z,7.33
2023-10-06T23:17:50.561Z,7.29
2023-10-06T23:20:21.809Z,7.23
2023-10-06T23:23:00.204Z,7.20
2023-10-06T23:25:37.816Z,7.19
2023-10-06T23:28:07.645Z,7.19
2023-10-06T23:30:35.022Z,7.21
2023-10-06T23:33:02.405Z,7.25
2023-10-06T23:35:29.875Z,7.29
2023-10-06T23:37:57.980Z,7.33
2023-10-06T23:40:26.462Z,7.35
2023-10-06T23:42:56.929Z,7.40
2023-10-06T23:45:30.893Z,7.43
2023-10-06T23:47:59.227Z,7.48
2023-10-06T23:50:32.507Z,7.51
2023-10-06T23:53:01.409Z,7.54
2023-10-06T23:55:29.416Z,7.57
2023-10-06T23:57:56.784Z,7.59
